Time;durP1;ratioP1;P1;durP2;ratioP2;P2;SDS_P1;SDS_P2;PMS_P1;PMS_P2;Temp;Humidity;BMP_temperature;BMP_pressure;BME280_temperature;BME280_humidity;BME280_pressure;Samples;Min_cycle;Max_cycle;Signal;HPM_P1;HPM_P2
2022/10/28 00:00:22;;;;;;;;;;;24.30;99.90;;;;;;4212156;28;19997;-64
2022/10/28 00:02:29;;;;;;;;;;;24.30;99.90;;;;;;4210124;28;19928;-65
2022/10/28 00:04:34;;;;;;;;;;;24.40;99.90;;;;;;4212599;28;20391;-65
2022/10/28 00:06:38;;;;;;;;;;;24.60;99.90;;;;;;4211453;28;19932;-64
2022/10/28 00:08:44;;;;;;;;;;;24.80;99.90;;;;;;4211749;28;19934;-66
2022/10/28 00:10:48;;;;;;;;;;;24.70;99.90;;;;;;4211545;28;21054;-66
2022/10/28 00:12:52;;;;;;;;;;;24.80;99.90;;;;;;4211953;28;20349;-64
2022/10/28 00:14:57;;;;;;;;;;;24.70;99.90;;;;;;4211489;28;20007;-65
2022/10/28 00:17:05;;;;;;;;;;;24.80;99.90;;;;;;4237431;27;20439;-66
2022/10/28 00:19:11;;;;;;;;;;;24.80;99.90;;;;;;4212120;28;19932;-66
2022/10/28 00:21:16;;;;;;;;;;;24.80;99.90;;;;;;4210562;28;19965;-68
2022/10/28 00:23:20;;;;;;;;;;;24.90;99.90;;;;;;4208938;28;20391;-66
2022/10/28 00:25:25;;;;;;;;;;;24.80;99.90;;;;;;4210974;28;19934;-66
2022/10/28 00:27:32;;;;;;;;;;;24.90;99.90;;;;;;4209830;28;20459;-67
2022/10/28 00:29:37;;;;;;;;;;;25.10;99.90;;;;;;4211080;28;20660;-67
2022/10/28 00:31:42;;;;;;;;;;;25.20;99.90;;;;;;4209150;28;19930;-67
2022/10/28 00:33:48;;;;;;;;;;;25.40;99.90;;;;;;4192820;28;20023;-67
2022/10/28 00:35:53;;;;;;;;;;;25.40;99.90;;;;;;4210157;28;19928;-66
2022/10/28 00:37:57;;;;;;;;;;;25.40;99.90;;;;;;4208635;28;20712;-66
2022/10/28 00:40:01;;;;;;;;;;;25.40;99.90;;;;;;4173727;28;19956;-66
2022/10/28 00:42:06;;;;;;;;;;;25.40;99.90;;;;;;4206517;28;19936;-66
2022/10/28 00:44:31;;;;;;;;;;;25.40;99.90;;;;;;4210647;28;19935;-66
2022/10/28 00:46:40;;;;;;;;;;;25.60;99.90;;;;;;4231046;27;19935;-66
2022/10/28 00:48:46;;;;;;;;;;;25.60;99.90;;;;;;4204525;28;19938;-67
2022/10/28 00:50:54;;;;;;;;;;;25.50;99.90;;;;;;4209044;28;19935;-66
2022/10/28 00:53:02;;;;;;;;;;;25.60;99.90;;;;;;4239046;27;19930;-66
2022/10/28 00:55:07;;;;;;;;;;;25.60;99.90;;;;;;4233291;27;19927;-66
2022/10/28 00:57:15;;;;;;;;;;;25.70;99.90;;;;;;4209833;28;19981;-66
2022/10/28 00:59:22;;;;;;;;;;;25.60;99.90;;;;;;4232205;27;19991;-66
2022/10/28 01:01:27;;;;;;;;;;;25.60;99.90;;;;;;4210807;28;20352;-66
2022/10/28 01:03:35;;;;;;;;;;;25.70;99.90;;;;;;4211623;28;19961;-65
2022/10/28 01:05:42;;;;;;;;;;;25.80;99.80;;;;;;4210459;28;19935;-66
2022/10/28 01:07:46;;;;;;;;;;;25.80;99.50;;;;;;4207965;28;19962;-66
2022/10/28 01:09:51;;;;;;;;;;;25.90;99.50;;;;;;4207433;28;19981;-66
2022/10/28 01:12:16;;;;;;;;;;;26.00;99.40;;;;;;4210565;28;20349;-66
2022/10/28 01:14:36;;;;;;;;;;;26.10;99.40;;;;;;4207372;28;19982;-66
2022/10/28 01:16:48;;;;;;;;;;;26.20;99.10;;;;;;4209074;28;19974;-68
2022/10/28 01:19:10;;;;;;;;;;;26.20;98.80;;;;;;4208124;28;20298;-66
2022/10/28 01:21:36;;;;;;;;;;;26.20;98.70;;;;;;4208465;28;19960;-67
2022/10/28 01:24:01;;;;;;;;;;;26.20;98.80;;;;;;4210479;28;20366;-66
2022/10/28 01:26:17;;;;;;;;;;;26.20;98.60;;;;;;4210629;28;20486;-70
2022/10/28 01:28:24;;;;;;;;;;;26.20;98.60;;;;;;4209408;28;19924;-67
2022/10/28 01:30:51;;;;;;;;;;;26.40;98.70;;;;;;4210971;28;19939;-65
2022/10/28 01:33:14;;;;;;;;;;;26.50;98.70;;;;;;4211427;28;20345;-66
2022/10/28 01:35:45;;;;;;;;;;;26.50;98.50;;;;;;4234016;28;19988;-65
2022/10/28 01:38:08;;;;;;;;;;;26.40;98.10;;;;;;4209096;28;20023;-66
2022/10/28 01:40:27;;;;;;;;;;;26.50;98.20;;;;;;4209821;28;19924;-66
2022/10/28 01:42:46;;;;;;;;;;;26.40;98.10;;;;;;4208709;28;20260;-66
2022/10/28 01:44:57;;;;;;;;;;;26.50;98.00;;;;;;4236207;28;20010;-66
2022/10/28 01:47:08;;;;;;;;;;;26.60;97.70;;;;;;4211014;28;20062;-65
2022/10/28 01:49:15;;;;;;;;;;;26.70;97.50;;;;;;4211213;28;19932;-66
2022/10/28 01:51:27;;;;;;;;;;;26.70;97.70;;;;;;4208573;28;19943;-67
2022/10/28 01:53:36;;;;;;;;;;;26.90;98.20;;;;;;4207038;28;20413;-67
2022/10/28 01:55:43;;;;;;;;;;;26.90;96.70;;;;;;4209853;28;19932;-66
2022/10/28 01:57:47;;;;;;;;;;;26.90;96.80;;;;;;4209419;28;19924;-66
2022/10/28 01:59:56;;;;;;;;;;;27.00;97.00;;;;;;4209170;28;19924;-66
2022/10/28 02:02:05;;;;;;;;;;;27.00;96.90;;;;;;4210539;28;20029;-66
2022/10/28 02:04:12;;;;;;;;;;;27.10;96.90;;;;;;4213301;28;20024;-66
2022/10/28 02:06:19;;;;;;;;;;;27.00;96.40;;;;;;4211227;28;20314;-66
2022/10/28 02:08:34;;;;;;;;;;;27.00;95.70;;;;;;4213296;28;19985;-66
2022/10/28 02:10:40;;;;;;;;;;;27.00;95.80;;;;;;4211204;28;19925;-66
2022/10/28 02:12:46;;;;;;;;;;;27.10;96.30;;;;;;4212292;28;19931;-66
2022/10/28 02:14:53;;;;;;;;;;;27.10;96.00;;;;;;4213577;28;19924;-66
2022/10/28 02:17:03;;;;;;;;;;;27.20;96.60;;;;;;4209363;28;19928;-66
2022/10/28 02:19:26;;;;;;;;;;;27.30;96.20;;;;;;4192861;28;19931;-66
2022/10/28 02:21:36;;;;;;;;;;;27.40;96.50;;;;;;4211814;28;20374;-66
2022/10/28 02:23:45;;;;;;;;;;;27.50;96.20;;;;;;4211660;28;19928;-66
2022/10/28 02:25:58;;;;;;;;;;;27.60;95.60;;;;;;4211220;28;19924;-66
2022/10/28 02:28:08;;;;;;;;;;;27.60;95.20;;;;;;4213388;28;19924;-65
2022/10/28 02:30:19;;;;;;;;;;;27.70;94.60;;;;;;4212492;28;19928;-66
2022/10/28 02:32:25;;;;;;;;;;;27.70;94.70;;;;;;4211710;28;19932;-65
2022/10/28 02:34:39;;;;;;;;;;;27.70;94.60;;;;;;4211534;28;19924;-65
2022/10/28 02:36:46;;;;;;;;;;;27.80;94.70;;;;;;4212664;28;20033;-67
2022/10/28 02:38:54;;;;;;;;;;;27.80;94.20;;;;;;4211345;28;19938;-67
2022/10/28 02:41:01;;;;;;;;;;;27.90;93.70;;;;;;4237457;27;19927;-66
2022/10/28 02:43:08;;;;;;;;;;;27.80;93.60;;;;;;4212074;28;19933;-66
2022/10/28 02:45:21;;;;;;;;;;;27.90;93.70;;;;;;4212816;28;19924;-65
2022/10/28 02:47:28;;;;;;;;;;;28.00;93.50;;;;;;4212667;28;19955;-65
2022/10/28 02:49:34;;;;;;;;;;;28.10;93.50;;;;;;4211033;28;19942;-65
2022/10/28 02:52:06;;;;;;;;;;;28.10;92.70;;;;;;4211193;28;19935;-65
2022/10/28 02:54:12;;;;;;;;;;;28.10;92.60;;;;;;4211570;28;19933;-66
2022/10/28 02:56:19;;;;;;;;;;;28.20;92.10;;;;;;4239562;27;19927;-65
2022/10/28 02:58:24;;;;;;;;;;;28.20;91.70;;;;;;4208896;28;20378;-64
2022/10/28 03:00:30;;;;;;;;;;;28.30;90.20;;;;;;4212305;28;20002;-65
2022/10/28 03:02:39;;;;;;;;;;;28.40;88.20;;;;;;4212234;28;19988;-64
2022/10/28 03:04:43;;;;;;;;;;;28.50;88.10;;;;;;4213165;28;19938;-64
2022/10/28 03:06:56;;;;;;;;;;;28.50;87.50;;;;;;4211648;28;19932;-65
2022/10/28 03:09:00;;;;;;;;;;;28.50;87.20;;;;;;4211811;28;19932;-66
2022/10/28 03:11:06;;;;;;;;;;;28.50;86.80;;;;;;4212352;28;19931;-65
2022/10/28 03:13:12;;;;;;;;;;;28.50;85.90;;;;;;4212509;28;20049;-66
2022/10/28 03:15:19;;;;;;;;;;;28.40;85.10;;;;;;4211251;28;19924;-66
2022/10/28 03:17:28;;;;;;;;;;;28.60;85.20;;;;;;4212757;28;19928;-65
2022/10/28 03:19:33;;;;;;;;;;;28.60;85.40;;;;;;4212413;28;19955;-65
2022/10/28 03:21:37;;;;;;;;;;;28.70;85.20;;;;;;4209974;28;19932;-66
2022/10/28 03:23:42;;;;;;;;;;;28.80;85.20;;;;;;4212072;28;19966;-65
2022/10/28 03:25:47;;;;;;;;;;;28.90;85.40;;;;;;4211205;28;20663;-65
2022/10/28 03:27:53;;;;;;;;;;;29.00;83.80;;;;;;4212295;28;19935;-65
2022/10/28 03:29:57;;;;;;;;;;;29.00;83.70;;;;;;4211587;28;20402;-65
2022/10/28 03:32:01;;;;;;;;;;;29.10;83.20;;;;;;4212407;28;20405;-64
2022/10/28 03:34:05;;;;;;;;;;;29.00;82.60;;;;;;4210433;28;20401;-65
2022/10/28 03:36:10;;;;;;;;;;;29.00;83.40;;;;;;4212230;28;19924;-65
2022/10/28 03:38:16;;;;;;;;;;;29.10;83.10;;;;;;4211934;28;20432;-65
2022/10/28 03:40:22;;;;;;;;;;;29.10;82.60;;;;;;4207207;28;19939;-64
2022/10/28 03:42:27;;;;;;;;;;;29.10;82.30;;;;;;4208082;28;19928;-64
2022/10/28 03:44:33;;;;;;;;;;;29.10;82.40;;;;;;4208334;28;20482;-64
2022/10/28 03:46:39;;;;;;;;;;;29.20;82.80;;;;;;4209498;28;20027;-65
2022/10/28 03:48:43;;;;;;;;;;;29.20;82.60;;;;;;4212083;28;19981;-65
2022/10/28 03:50:52;;;;;;;;;;;29.20;82.60;;;;;;4210496;28;19928;-64
2022/10/28 03:52:57;;;;;;;;;;;29.20;82.90;;;;;;4209009;28;20009;-65
2022/10/28 03:55:01;;;;;;;;;;;29.20;81.70;;;;;;4211077;28;20018;-64
2022/10/28 03:57:07;;;;;;;;;;;29.20;81.80;;;;;;4210856;28;19928;-64
2022/10/28 03:59:12;;;;;;;;;;;29.30;81.10;;;;;;4212486;28;19932;-64
2022/10/28 04:01:22;;;;;;;;;;;29.30;81.20;;;;;;4210975;28;19928;-64
2022/10/28 04:03:26;;;;;;;;;;;29.40;81.20;;;;;;4212206;28;19931;-64
2022/10/28 04:05:30;;;;;;;;;;;29.50;80.40;;;;;;4211839;28;19928;-64
2022/10/28 04:07:34;;;;;;;;;;;29.60;80.90;;;;;;4212369;28;19981;-64
2022/10/28 04:09:39;;;;;;;;;;;29.70;80.20;;;;;;4211357;28;19924;-64
2022/10/28 04:11:47;;;;;;;;;;;29.70;79.60;;;;;;4210837;28;20436;-65
2022/10/28 04:13:51;;;;;;;;;;;29.70;80.90;;;;;;4212131;28;20051;-64
2022/10/28 04:15:57;;;;;;;;;;;29.70;80.30;;;;;;4210047;28;19934;-66
2022/10/28 04:18:01;;;;;;;;;;;29.80;80.60;;;;;;4212002;28;19932;-65
2022/10/28 04:20:05;;;;;;;;;;;29.80;79.00;;;;;;4206766;28;19932;-65
2022/10/28 04:22:10;;;;;;;;;;;29.90;78.20;;;;;;4207530;28;20313;-66
2022/10/28 04:24:16;;;;;;;;;;;30.00;77.70;;;;;;4206431;28;19924;-66
2022/10/28 04:26:19;;;;;;;;;;;29.90;77.90;;;;;;4210159;28;19963;-66
2022/10/28 04:28:24;;;;;;;;;;;29.90;77.50;;;;;;4211341;28;19924;-65
2022/10/28 04:30:28;;;;;;;;;;;29.90;77.50;;;;;;4210439;28;20279;-66
2022/10/28 04:32:32;;;;;;;;;;;30.00;78.70;;;;;;4211772;28;19928;-66
2022/10/28 04:34:37;;;;;;;;;;;30.10;78.60;;;;;;4211671;28;19947;-65
2022/10/28 04:36:42;;;;;;;;;;;30.00;77.60;;;;;;4208880;28;20315;-66
2022/10/28 04:38:46;;;;;;;;;;;30.20;77.20;;;;;;4208713;28;19938;-66
2022/10/28 04:40:51;;;;;;;;;;;30.20;76.80;;;;;;4216907;28;19938;-67
2022/10/28 04:42:55;;;;;;;;;;;30.20;77.20;;;;;;4219676;28;19966;-66
2022/10/28 04:44:59;;;;;;;;;;;30.30;77.00;;;;;;4218642;28;19924;-66
2022/10/28 04:47:06;;;;;;;;;;;30.40;76.70;;;;;;4219985;28;19924;-67
2022/10/28 04:49:10;;;;;;;;;;;30.40;75.90;;;;;;4211910;28;20264;-65
2022/10/28 04:51:14;;;;;;;;;;;30.30;76.00;;;;;;4210918;28;19934;-65
2022/10/28 04:53:20;;;;;;;;;;;30.30;76.30;;;;;;4210045;28;19924;-65
2022/10/28 04:55:26;;;;;;;;;;;30.30;76.70;;;;;;4212561;28;19935;-66
2022/10/28 04:57:31;;;;;;;;;;;30.40;76.90;;;;;;4212609;28;19978;-65
2022/10/28 04:59:36;;;;;;;;;;;30.50;76.90;;;;;;4208942;28;20386;-64
2022/10/28 05:01:40;;;;;;;;;;;30.50;76.60;;;;;;4209685;28;20031;-65
2022/10/28 05:03:46;;;;;;;;;;;30.60;76.00;;;;;;4212425;28;19956;-65
2022/10/28 05:05:50;;;;;;;;;;;30.50;74.80;;;;;;4211700;28;20454;-65
2022/10/28 05:07:55;;;;;;;;;;;30.40;73.70;;;;;;4212382;28;19932;-65
2022/10/28 05:10:01;;;;;;;;;;;30.40;74.50;;;;;;4212706;28;20344;-65
2022/10/28 05:12:06;;;;;;;;;;;30.40;74.40;;;;;;4210307;28;20026;-65
2022/10/28 05:14:10;;;;;;;;;;;30.40;74.30;;;;;;4212083;28;19929;-66
2022/10/28 05:16:16;;;;;;;;;;;30.40;74.70;;;;;;4211765;28;19954;-66
2022/10/28 05:18:21;;;;;;;;;;;30.50;75.50;;;;;;4212273;28;19985;-65
2022/10/28 05:20:27;;;;;;;;;;;30.70;76.50;;;;;;4211906;28;19936;-66
2022/10/28 05:22:31;;;;;;;;;;;30.70;77.40;;;;;;4210949;28;19936;-67
2022/10/28 05:24:35;;;;;;;;;;;30.70;77.60;;;;;;4210417;28;19928;-64
2022/10/28 05:26:40;;;;;;;;;;;30.70;76.30;;;;;;4211540;28;19928;-65
2022/10/28 05:28:48;;;;;;;;;;;30.70;75.70;;;;;;4211812;28;19998;-65
2022/10/28 05:30:54;;;;;;;;;;;30.80;76.00;;;;;;4211490;28;20371;-64
2022/10/28 05:33:01;;;;;;;;;;;30.90;75.40;;;;;;4213934;28;19947;-64
2022/10/28 05:35:06;;;;;;;;;;;30.80;76.00;;;;;;4211314;28;20349;-66
2022/10/28 05:37:12;;;;;;;;;;;31.00;77.00;;;;;;4211588;28;19987;-65
2022/10/28 05:39:18;;;;;;;;;;;30.80;76.30;;;;;;4210682;28;19981;-65
2022/10/28 05:41:25;;;;;;;;;;;30.80;75.60;;;;;;4210774;28;19924;-65
2022/10/28 05:43:28;;;;;;;;;;;30.80;75.80;;;;;;4210747;28;20413;-65
2022/10/28 05:45:33;;;;;;;;;;;30.70;75.30;;;;;;4209488;28;19974;-64
2022/10/28 05:47:46;;;;;;;;;;;30.80;77.50;;;;;;4211498;28;20413;-64
2022/10/28 05:49:50;;;;;;;;;;;30.90;75.90;;;;;;4193344;28;19928;-63
2022/10/28 05:51:54;;;;;;;;;;;30.90;75.10;;;;;;4208964;28;19932;-64
2022/10/28 05:53:59;;;;;;;;;;;30.90;75.10;;;;;;4210811;28;19993;-64
2022/10/28 05:56:03;;;;;;;;;;;31.00;76.00;;;;;;4211026;28;19985;-65
2022/10/28 05:58:08;;;;;;;;;;;31.10;77.20;;;;;;4209172;28;19932;-65
2022/10/28 06:00:13;;;;;;;;;;;31.00;76.30;;;;;;4209435;28;19979;-65
2022/10/28 06:02:17;;;;;;;;;;;31.10;77.00;;;;;;4192113;28;19929;-65
2022/10/28 06:04:24;;;;;;;;;;;31.10;75.80;;;;;;4210938;28;20399;-64
2022/10/28 06:06:30;;;;;;;;;;;31.00;75.50;;;;;;4208201;28;19925;-64
2022/10/28 06:08:34;;;;;;;;;;;31.10;75.40;;;;;;4209698;28;20643;-65
2022/10/28 06:10:41;;;;;;;;;;;31.00;75.40;;;;;;4211963;28;20026;-64
2022/10/28 06:12:47;;;;;;;;;;;30.90;75.30;;;;;;4210373;28;19985;-65
2022/10/28 06:14:52;;;;;;;;;;;31.10;75.70;;;;;;4207815;28;19928;-65
2022/10/28 06:16:56;;;;;;;;;;;31.00;74.70;;;;;;4209497;28;19978;-65
2022/10/28 06:19:03;;;;;;;;;;;31.00;75.30;;;;;;4210117;28;20424;-67
2022/10/28 06:21:07;;;;;;;;;;;30.90;74.20;;;;;;4208760;28;20406;-64
2022/10/28 06:23:11;;;;;;;;;;;30.90;75.80;;;;;;4209696;28;19924;-66
2022/10/28 06:25:18;;;;;;;;;;;31.00;76.20;;;;;;4210535;28;19928;-64
2022/10/28 06:27:22;;;;;;;;;;;31.10;76.30;;;;;;4209690;28;20050;-64
2022/10/28 06:29:26;;;;;;;;;;;31.00;75.40;;;;;;4211302;28;19928;-64
2022/10/28 06:31:33;;;;;;;;;;;31.10;75.50;;;;;;4210758;28;19924;-65
2022/10/28 06:33:37;;;;;;;;;;;31.10;75.20;;;;;;4219645;28;19936;-64
2022/10/28 06:35:41;;;;;;;;;;;31.10;76.10;;;;;;4210057;28;20725;-65
2022/10/28 06:37:47;;;;;;;;;;;31.20;76.60;;;;;;4210380;28;19935;-65
2022/10/28 06:39:52;;;;;;;;;;;31.20;76.20;;;;;;4208951;28;20530;-65
2022/10/28 06:41:56;;;;;;;;;;;31.20;76.30;;;;;;4210505;28;19935;-65
2022/10/28 06:44:03;;;;;;;;;;;31.40;76.50;;;;;;4210868;28;20533;-66
2022/10/28 06:46:08;;;;;;;;;;;31.40;76.30;;;;;;4209912;28;19931;-66
2022/10/28 06:48:12;;;;;;;;;;;31.30;75.80;;;;;;4213205;28;20298;-66
2022/10/28 06:50:16;;;;;;;;;;;31.20;76.10;;;;;;4213482;28;19935;-66
2022/10/28 06:52:21;;;;;;;;;;;31.20;75.90;;;;;;4212476;28;20015;-66
2022/10/28 06:54:27;;;;;;;;;;;31.20;76.20;;;;;;4212419;28;19969;-66
2022/10/28 06:56:33;;;;;;;;;;;31.30;76.70;;;;;;4212209;28;20693;-65
2022/10/28 06:58:37;;;;;;;;;;;31.40;77.30;;;;;;4213667;28;19988;-65
2022/10/28 07:00:44;;;;;;;;;;;31.40;75.70;;;;;;4213167;28;19942;-65
2022/10/28 07:02:53;;;;;;;;;;;31.30;76.10;;;;;;4213063;28;20292;-66
2022/10/28 07:04:57;;;;;;;;;;;31.20;77.10;;;;;;4221929;28;20457;-65
2022/10/28 07:07:04;;;;;;;;;;;31.20;76.90;;;;;;4213171;28;19928;-65
2022/10/28 07:09:14;;;;;;;;;;;31.20;75.90;;;;;;4212397;28;19934;-66
2022/10/28 07:11:18;;;;;;;;;;;31.20;76.50;;;;;;4213548;28;19928;-65
2022/10/28 07:13:23;;;;;;;;;;;31.30;76.50;;;;;;4213748;28;19928;-67
2022/10/28 07:15:30;;;;;;;;;;;31.30;76.20;;;;;;4195672;28;19934;-67
2022/10/28 07:17:35;;;;;;;;;;;31.30;76.10;;;;;;4213290;28;20083;-66
2022/10/28 07:19:38;;;;;;;;;;;31.30;76.30;;;;;;4211968;28;19928;-65
2022/10/28 07:21:45;;;;;;;;;;;31.40;77.00;;;;;;4213027;28;19928;-67
2022/10/28 07:23:51;;;;;;;;;;;31.40;77.00;;;;;;4211149;28;20370;-65
2022/10/28 07:25:57;;;;;;;;;;;31.40;76.70;;;;;;4212755;28;19973;-65
2022/10/28 07:28:03;;;;;;;;;;;31.30;76.40;;;;;;4213013;28;19932;-65
2022/10/28 07:30:10;;;;;;;;;;;31.20;76.00;;;;;;4212522;28;19928;-66
2022/10/28 07:32:16;;;;;;;;;;;31.20;76.40;;;;;;4213271;28;19928;-66
2022/10/28 07:34:21;;;;;;;;;;;31.20;76.90;;;;;;4212559;28;19967;-65
2022/10/28 07:36:29;;;;;;;;;;;31.10;76.70;;;;;;4211757;28;19993;-65
2022/10/28 07:38:35;;;;;;;;;;;31.20;77.60;;;;;;4212017;28;19958;-65
2022/10/28 07:40:39;;;;;;;;;;;31.20;77.00;;;;;;4213157;28;19924;-65
2022/10/28 07:42:44;;;;;;;;;;;31.20;76.80;;;;;;4213311;28;19934;-65
2022/10/28 07:44:48;;;;;;;;;;;31.30;77.20;;;;;;4209596;28;19932;-66
2022/10/28 07:46:55;;;;;;;;;;;31.30;77.80;;;;;;4213148;28;19960;-65
2022/10/28 07:49:03;;;;;;;;;;;31.30;77.80;;;;;;4213664;28;20023;-66
2022/10/28 07:51:13;;;;;;;;;;;31.30;77.30;;;;;;4212266;28;19985;-65
2022/10/28 07:53:17;;;;;;;;;;;31.40;77.90;;;;;;4213728;28;19985;-67
2022/10/28 07:55:25;;;;;;;;;;;31.40;78.70;;;;;;4213174;28;20022;-66
2022/10/28 07:57:32;;;;;;;;;;;31.40;78.70;;;;;;4209967;28;19930;-66
2022/10/28 07:59:36;;;;;;;;;;;31.30;78.00;;;;;;4195336;28;19962;-67
2022/10/28 08:01:41;;;;;;;;;;;31.20;78.00;;;;;;4212075;28;19967;-66
2022/10/28 08:03:48;;;;;;;;;;;31.20;78.20;;;;;;4212754;28;19932;-65
2022/10/28 08:05:58;;;;;;;;;;;31.20;78.30;;;;;;4211481;28;19924;-66
2022/10/28 08:08:03;;;;;;;;;;;31.20;78.70;;;;;;4210283;28;19928;-66
2022/10/28 08:10:10;;;;;;;;;;;31.20;78.40;;;;;;4212714;28;19948;-66
2022/10/28 08:12:14;;;;;;;;;;;31.20;78.50;;;;;;4212749;28;20425;-67
2022/10/28 08:14:21;;;;;;;;;;;31.10;78.60;;;;;;4210104;28;19932;-67
2022/10/28 08:16:27;;;;;;;;;;;31.10;78.30;;;;;;4209975;28;19932;-66
2022/10/28 08:18:33;;;;;;;;;;;31.00;77.80;;;;;;4238424;27;19934;-67
2022/10/28 08:20:38;;;;;;;;;;;31.00;77.60;;;;;;4215402;28;20385;-66
2022/10/28 08:22:45;;;;;;;;;;;31.00;78.00;;;;;;4230002;28;19954;-67
2022/10/28 08:24:49;;;;;;;;;;;31.10;78.40;;;;;;4219002;28;19971;-65
2022/10/28 08:26:54;;;;;;;;;;;31.10;78.40;;;;;;4212261;28;19928;-66
2022/10/28 08:29:00;;;;;;;;;;;31.00;78.30;;;;;;4210372;28;19967;-67
2022/10/28 08:31:07;;;;;;;;;;;31.00;78.40;;;;;;4212731;28;19928;-66
2022/10/28 08:33:14;;;;;;;;;;;31.00;78.20;;;;;;4211673;28;19958;-64
2022/10/28 08:35:18;;;;;;;;;;;31.10;78.30;;;;;;4212410;28;19932;-64
2022/10/28 08:37:24;;;;;;;;;;;31.00;78.20;;;;;;4213097;28;19967;-65
2022/10/28 08:39:29;;;;;;;;;;;31.00;78.50;;;;;;4212640;28;19934;-64
2022/10/28 08:41:46;;;;;;;;;;;31.00;78.70;;;;;;4212980;28;19928;-67
2022/10/28 08:44:00;;;;;;;;;;;31.00;78.90;;;;;;4234087;27;19935;-65
2022/10/28 08:46:24;;;;;;;;;;;30.90;79.10;;;;;;4211996;28;19928;-64
2022/10/28 08:48:30;;;;;;;;;;;30.90;79.30;;;;;;4200217;28;20419;-64
2022/10/28 08:50:39;;;;;;;;;;;30.80;79.10;;;;;;4212927;28;19935;-65
2022/10/28 08:52:47;;;;;;;;;;;30.80;79.10;;;;;;4211206;28;20014;-66
2022/10/28 08:54:53;;;;;;;;;;;30.80;79.60;;;;;;4192018;28;19928;-66
2022/10/28 08:56:58;;;;;;;;;;;30.80;79.90;;;;;;4235962;27;19969;-67
2022/10/28 08:59:05;;;;;;;;;;;30.80;80.30;;;;;;4235326;27;20010;-65
2022/10/28 09:01:15;;;;;;;;;;;30.70;80.00;;;;;;4210220;28;19935;-66
2022/10/28 09:03:30;;;;;;;;;;;30.70;79.70;;;;;;4212414;28;19971;-65
2022/10/28 09:05:38;;;;;;;;;;;30.60;79.60;;;;;;4211576;28;19959;-65
2022/10/28 09:07:43;;;;;;;;;;;30.60;79.70;;;;;;4218955;28;19993;-65
2022/10/28 09:09:47;;;;;;;;;;;30.60;80.00;;;;;;4215796;28;19938;-66
2022/10/28 09:11:55;;;;;;;;;;;30.50;80.00;;;;;;4208163;28;19931;-67
2022/10/28 09:14:02;;;;;;;;;;;30.50;80.00;;;;;;4211953;28;19935;-65
2022/10/28 09:16:26;;;;;;;;;;;30.50;81.00;;;;;;4211924;28;19932;-66
2022/10/28 09:18:33;;;;;;;;;;;30.50;80.40;;;;;;4210739;28;19928;-65
2022/10/28 09:20:56;;;;;;;;;;;30.50;80.70;;;;;;4208627;28;19932;-65
2022/10/28 09:23:06;;;;;;;;;;;30.50;80.60;;;;;;4209930;28;19930;-65
2022/10/28 09:25:23;;;;;;;;;;;30.50;80.90;;;;;;4208179;28;20294;-65
2022/10/28 09:27:27;;;;;;;;;;;30.40;81.30;;;;;;4211389;28;20565;-65
2022/10/28 09:29:35;;;;;;;;;;;30.40;81.50;;;;;;4212080;28;19967;-65
2022/10/28 09:31:49;;;;;;;;;;;30.30;81.70;;;;;;4211935;28;19994;-64
2022/10/28 09:34:05;;;;;;;;;;;30.30;81.80;;;;;;4211436;28;19935;-65
2022/10/28 09:36:13;;;;;;;;;;;30.30;81.90;;;;;;4208971;28;20367;-64
2022/10/28 09:38:24;;;;;;;;;;;30.30;82.10;;;;;;4236728;27;19972;-66
2022/10/28 09:40:31;;;;;;;;;;;30.30;82.40;;;;;;4206547;28;19928;-66
2022/10/28 09:42:38;;;;;;;;;;;30.20;82.30;;;;;;4211622;28;19924;-66
2022/10/28 09:44:49;;;;;;;;;;;30.20;82.60;;;;;;4210599;28;19956;-65
2022/10/28 09:46:54;;;;;;;;;;;30.20;82.80;;;;;;4211926;28;19932;-66
2022/10/28 09:48:59;;;;;;;;;;;30.20;82.90;;;;;;4211758;28;19954;-66
2022/10/28 09:51:05;;;;;;;;;;;30.20;82.60;;;;;;4211249;28;19986;-65
2022/10/28 09:53:21;;;;;;;;;;;30.20;82.60;;;;;;4211465;28;20326;-66
2022/10/28 09:55:25;;;;;;;;;;;30.10;82.80;;;;;;4209188;28;19977;-66
2022/10/28 09:57:31;;;;;;;;;;;30.10;83.40;;;;;;4210875;28;19935;-66
2022/10/28 09:59:38;;;;;;;;;;;30.10;83.70;;;;;;4210812;28;19928;-66
2022/10/28 10:01:42;;;;;;;;;;;30.00;83.60;;;;;;4212075;28;20375;-66
2022/10/28 10:03:47;;;;;;;;;;;30.00;84.00;;;;;;4195294;28;19925;-67
2022/10/28 10:05:55;;;;;;;;;;;29.90;84.00;;;;;;4208544;28;19932;-67
2022/10/28 10:08:02;;;;;;;;;;;29.90;84.20;;;;;;4231345;28;19924;-66
2022/10/28 10:10:17;;;;;;;;;;;29.90;84.10;;;;;;4195605;28;19978;-66
2022/10/28 10:12:21;;;;;;;;;;;29.90;84.80;;;;;;4207804;28;20061;-66
2022/10/28 10:14:28;;;;;;;;;;;29.80;85.10;;;;;;4207828;28;19997;-65
2022/10/28 10:16:34;;;;;;;;;;;29.80;85.00;;;;;;4211949;28;20011;-65
2022/10/28 10:18:41;;;;;;;;;;;29.80;85.30;;;;;;4212235;28;19936;-65
2022/10/28 10:20:46;;;;;;;;;;;29.80;85.40;;;;;;4210637;28;20624;-65
2022/10/28 10:22:53;;;;;;;;;;;29.70;86.00;;;;;;4215430;28;20427;-65
2022/10/28 10:25:20;;;;;;;;;;;29.70;86.30;;;;;;4215938;28;19973;-66
2022/10/28 10:27:28;;;;;;;;;;;29.60;86.70;;;;;;4214570;28;20023;-65
2022/10/28 10:29:35;;;;;;;;;;;29.60;87.30;;;;;;4203880;28;19931;-65
2022/10/28 10:31:41;;;;;;;;;;;29.60;87.70;;;;;;4223140;28;19931;-65
2022/10/28 10:33:47;;;;;;;;;;;29.50;88.00;;;;;;4221083;28;19928;-65
2022/10/28 10:36:13;;;;;;;;;;;29.50;88.20;;;;;;4236101;27;19927;-65
2022/10/28 10:38:18;;;;;;;;;;;29.50;88.80;;;;;;4213308;28;19963;-65
2022/10/28 10:40:32;;;;;;;;;;;29.40;89.60;;;;;;4211525;28;19932;-66
2022/10/28 10:42:40;;;;;;;;;;;29.30;90.10;;;;;;4205725;28;19940;-65
2022/10/28 10:45:15;;;;;;;;;;;29.30;90.40;;;;;;4188241;28;19939;-65
2022/10/28 10:47:24;;;;;;;;;;;29.20;90.60;;;;;;4203414;28;19935;-65
2022/10/28 10:49:32;;;;;;;;;;;29.20;90.90;;;;;;4187364;28;20004;-65
2022/10/28 10:51:40;;;;;;;;;;;29.10;91.20;;;;;;4206070;28;19924;-65
2022/10/28 10:53:48;;;;;;;;;;;29.10;91.50;;;;;;4191139;28;19982;-65
2022/10/28 10:55:55;;;;;;;;;;;29.00;91.60;;;;;;4178583;28;19939;-64
2022/10/28 10:58:01;;;;;;;;;;;28.90;91.90;;;;;;4202274;28;19928;-65
2022/10/28 11:00:06;;;;;;;;;;;28.80;92.00;;;;;;4195001;28;20338;-65
2022/10/28 11:02:26;;;;;;;;;;;28.80;92.10;;;;;;4158680;28;19933;-64
2022/10/28 11:04:36;;;;;;;;;;;28.80;92.30;;;;;;4184699;28;19933;-65
2022/10/28 11:06:42;;;;;;;;;;;28.70;92.40;;;;;;4183984;28;19925;-65
2022/10/28 11:08:46;;;;;;;;;;;28.60;92.60;;;;;;4194036;28;19924;-65
2022/10/28 11:11:12;;;;;;;;;;;28.70;92.70;;;;;;4196990;28;19932;-65
2022/10/28 11:13:25;;;;;;;;;;;28.70;92.80;;;;;;4200455;28;19997;-65
2022/10/28 11:15:31;;;;;;;;;;;28.60;92.90;;;;;;4194215;28;21347;-65
2022/10/28 11:17:52;;;;;;;;;;;28.70;93.10;;;;;;4147276;28;19931;-65
2022/10/28 11:19:58;;;;;;;;;;;28.60;93.20;;;;;;4209584;28;19928;-65
2022/10/28 11:22:16;;;;;;;;;;;28.70;93.30;;;;;;4211970;28;20426;-65
2022/10/28 11:24:24;;;;;;;;;;;28.70;93.50;;;;;;4212514;28;19932;-65
2022/10/28 11:26:29;;;;;;;;;;;28.60;93.60;;;;;;4234034;27;20255;-65
2022/10/28 11:28:36;;;;;;;;;;;28.60;93.70;;;;;;4211452;28;19924;-65
2022/10/28 11:30:43;;;;;;;;;;;28.50;93.70;;;;;;4205538;28;20428;-65
2022/10/28 11:33:08;;;;;;;;;;;28.50;93.60;;;;;;4193998;28;19928;-66
2022/10/28 11:35:41;;;;;;;;;;;28.50;93.70;;;;;;4206893;28;19987;-65
2022/10/28 11:38:05;;;;;;;;;;;28.50;93.60;;;;;;4205584;28;19932;-65
2022/10/28 11:40:31;;;;;;;;;;;28.40;93.90;;;;;;4212669;28;19924;-65
2022/10/28 11:42:37;;;;;;;;;;;28.40;93.90;;;;;;4207081;28;19997;-65
2022/10/28 11:44:54;;;;;;;;;;;28.40;94.00;;;;;;4195762;28;19939;-65
2022/10/28 11:47:03;;;;;;;;;;;28.30;94.10;;;;;;4211056;27;19927;-67
2022/10/28 11:49:07;;;;;;;;;;;28.30;94.10;;;;;;4198217;28;19928;-66
2022/10/28 11:51:23;;;;;;;;;;;28.30;94.20;;;;;;4206117;28;19931;-66
2022/10/28 11:53:46;;;;;;;;;;;28.20;94.20;;;;;;4211471;28;19928;-66
2022/10/28 11:56:00;;;;;;;;;;;28.20;94.30;;;;;;4204821;28;19927;-66
2022/10/28 11:58:07;;;;;;;;;;;28.10;94.50;;;;;;4208365;28;19938;-65
2022/10/28 12:00:28;;;;;;;;;;;28.20;94.50;;;;;;4209980;28;19924;-65
2022/10/28 12:02:34;;;;;;;;;;;28.20;94.50;;;;;;4211904;28;19928;-65
2022/10/28 12:04:46;;;;;;;;;;;28.20;94.60;;;;;;4211491;28;19977;-66
2022/10/28 12:06:53;;;;;;;;;;;28.20;94.60;;;;;;4205857;28;19924;-65
2022/10/28 12:09:35;;;;;;;;;;;28.10;94.80;;;;;;4211700;28;19932;-66
2022/10/28 12:11:45;;;;;;;;;;;28.10;94.80;;;;;;4171789;28;19929;-65
2022/10/28 12:14:13;;;;;;;;;;;28.10;94.90;;;;;;4175651;28;20167;-65
2022/10/28 12:16:24;;;;;;;;;;;28.10;95.20;;;;;;4154477;28;19937;-66
2022/10/28 12:18:49;;;;;;;;;;;28.10;95.00;;;;;;4161861;28;19929;-65
2022/10/28 12:21:06;;;;;;;;;;;28.00;94.90;;;;;;4177391;28;20031;-65
2022/10/28 12:23:12;;;;;;;;;;;28.00;94.80;;;;;;4098291;28;19926;-66
2022/10/28 12:25:17;;;;;;;;;;;28.00;95.00;;;;;;4145024;28;19933;-65